»·PEaware :: N5331F KOSH-KOSH

N5331F :: KOSH-KOSH

FLIGHT INFORMATION

Flight Status: Arrived
Operator: Privately registered:
United States
More flights under this callsign
Pilot: Robert D. (30684)
Aircraft: PIPER PA-24 COMMANCHE
(PA24)
More flights by this aircraft type
Origin: KOSH Wittman Regl
United States
Destination: KOSH Wittman Regl
United States
More flights between these airports :: More routes between these airports
Route: null
File this flight plan on PilotEdge
Remarks:
Altitude:
(Current/Filed)
null
Speed:
(Current/Filed)
0kts
Departed: 23-Jul-20 07:00 AM
Arrived: 23-Jul-20 07:41 AM
Distance/Time
Traveled:
0nm/0:41
Distance/Time
To Go:
Arrived

Flight Plot

Page will automatically refresh every two minutes.

Flight plan parsing failed; only flown route is shown


Map Options




Map Legend


Flown Route
Filed Route
Departure Airport
Arrival Airport
Navaid (VOR, NDB)
Fix

Horizontal Profiles

Position Reports

Time Latitude Longitude Heading Altitude Ground
Speed
23-Jul-20 06:53 43.769545 -88.484896 89 811ft 0kts
23-Jul-20 06:55 43.769546 -88.484873 85 811ft 2kts
23-Jul-20 06:56 43.770167 -88.484767 302 811ft 2kts
23-Jul-20 06:56 43.770464 -88.485503 355 811ft 5kts
23-Jul-20 06:57 43.770940 -88.485411 3 811ft 0kts
23-Jul-20 06:58 43.770986 -88.485407 3 811ft 0kts
23-Jul-20 06:59 43.771541 -88.492934 275 907ft 75kts
23-Jul-20 07:00 43.777884 -88.523672 288 1931ft 91kts
23-Jul-20 07:01 43.780151 -88.559277 257 2888ft 100kts
23-Jul-20 07:02 43.771514 -88.598592 253 3430ft 111kts
23-Jul-20 07:03 43.757708 -88.638368 236 3506ft 115kts
23-Jul-20 07:04 43.749215 -88.679590 264 3215ft 106kts
23-Jul-20 07:05 43.747416 -88.719933 268 3231ft 104kts
23-Jul-20 07:06 43.748985 -88.760315 285 3055ft 111kts
23-Jul-20 07:07 43.758094 -88.797111 291 2912ft 99kts
23-Jul-20 07:08 43.767740 -88.831631 291 2936ft 99kts
23-Jul-20 07:09 43.778903 -88.868238 295 3023ft 100kts
23-Jul-20 07:10 43.792075 -88.901809 303 3126ft 101kts
23-Jul-20 07:11 43.807176 -88.934742 301 3429ft 101kts
23-Jul-20 07:12 43.822959 -88.969127 298 3345ft 111kts
23-Jul-20 07:13 43.829046 -89.009754 259 2647ft 109kts
23-Jul-20 07:14 43.818576 -89.045232 234 2347ft 92kts
23-Jul-20 07:15 43.798304 -89.071602 199 2012ft 104kts
23-Jul-20 07:16 43.773768 -89.060812 122 1927ft 96kts
23-Jul-20 07:17 43.772374 -89.026554 71 1926ft 94kts
23-Jul-20 07:18 43.783204 -88.991801 62 2035ft 105kts
23-Jul-20 07:19 43.796790 -88.955451 62 1849ft 105kts
23-Jul-20 07:20 43.809413 -88.923999 58 1840ft 96kts
23-Jul-20 07:21 43.823307 -88.890837 61 1859ft 90kts
23-Jul-20 07:22 43.834768 -88.862083 56 1858ft 87kts
23-Jul-20 07:23 43.848545 -88.835764 53 1846ft 75kts
23-Jul-20 07:24 43.863517 -88.827198 274 1805ft 117kts
23-Jul-20 07:25 43.854227 -88.870026 254 2092ft 115kts
23-Jul-20 07:26 43.830634 -88.884349 122 1961ft 118kts
23-Jul-20 07:27 43.839033 -88.852741 55 1780ft 80kts
23-Jul-20 07:28 43.853192 -88.826964 51 1805ft 84kts
23-Jul-20 07:29 43.867019 -88.801864 52 1896ft 85kts
23-Jul-20 07:30 43.881595 -88.775177 50 1861ft 86kts
23-Jul-20 07:31 43.897851 -88.750277 44 1856ft 90kts
23-Jul-20 07:32 43.915880 -88.726524 41 1772ft 82kts
23-Jul-20 07:33 43.933243 -88.706401 38 1725ft 82kts
23-Jul-20 07:34 43.950350 -88.685613 41 1829ft 80kts
23-Jul-20 07:35 43.965820 -88.661295 55 1835ft 85kts
23-Jul-20 07:36 43.978674 -88.633589 57 1802ft 86kts
23-Jul-20 07:37 43.990674 -88.604844 59 1782ft 86kts
23-Jul-20 07:38 43.998831 -88.574833 86 1752ft 80kts
23-Jul-20 07:39 43.995430 -88.548224 162 1198ft 64kts
23-Jul-20 07:40 43.991843 -88.561984 288 811ft 14kts
23-Jul-20 07:41 43.992452 -88.566157 273 811ft 10kts
23-Jul-20 07:42 43.992511 -88.570145 271 811ft 15kts
23-Jul-20 07:43 43.992023 -88.575856 222 811ft 8kts
23-Jul-20 07:44 43.990939 -88.571544 91 811ft 32kts
23-Jul-20 07:45 43.990359 -88.565450 92 811ft 2kts
23-Jul-20 07:46 43.990368 -88.564916 91 811ft 0kts
23-Jul-20 07:47 43.990368 -88.564916 91 811ft 0kts
23-Jul-20 07:48 43.990368 -88.564916 91 811ft 0kts
23-Jul-20 07:49 43.990368 -88.564916 91 811ft 0kts
23-Jul-20 07:50 43.990368 -88.564916 91 811ft 0kts
23-Jul-20 07:51 43.990368 -88.564916 91 811ft 0kts
23-Jul-20 07:52 43.990368 -88.564916 91 811ft 0kts
23-Jul-20 07:53 43.990368 -88.564916 91 811ft 0kts
23-Jul-20 07:54 43.990368 -88.564916 91 811ft 0kts

Navigation Log

Ident Type
Flight plan parsing failed, navigation log unavailable